Granby, Vermont
Current Conditions -  °F | °C
As of 7:52 PM on Monday 20 Oct 2014 (Local Time) from KHIE Reporting Station
Overcast Overcast  
Wind Chill: 43°   Ceiling: 6000
Heat Index: 43°   Visibility: 10mi
Dew Point: 36°   Wind: 0mph
Humidity: 76%   Direction: NA
Pressure: 29.94"   Gusts: NA
Location:  44.57°N, 71.76°W
Report Text: KHIE 202352Z AUTO 00000KT 10SM SCT049 OVC060 06/02 A2994 RMK AO2 SLP150 T00610022 10100 20061 51007
Loading
Personal Weather Stations






























Interactive Weather Map
Tropical Storm Tracking
New forecast layout! Learn more

10-Day Weather Forecast

Advertisements
Track Severe Weather on mobile